Time;durP1;ratioP1;P1;durP2;ratioP2;P2;SDS_P1;SDS_P2;PMS_P1;PMS_P2;Temp;Humidity;BMP_temperature;BMP_pressure;BME280_temperature;BME280_humidity;BME280_pressure;Samples;Min_cycle;Max_cycle;Signal;HPM_P1;HPM_P2
2022/03/19 00:00:39;;;;;;;12.07;6.93;;;7.20;99.90;;;;;;5015523;28;20572;-65
2022/03/19 00:03:05;;;;;;;10.07;4.47;;;7.10;99.90;;;;;;5015009;28;21060;-65
2022/03/19 00:05:31;;;;;;;21.63;11.03;;;7.00;99.90;;;;;;5011082;28;20222;-65
2022/03/19 00:07:56;;;;;;;15.80;6.40;;;7.10;99.90;;;;;;5006478;28;20199;-65
2022/03/19 00:10:22;;;;;;;13.17;5.63;;;7.00;99.90;;;;;;5014821;28;20242;-65
2022/03/19 00:12:49;;;;;;;17.40;8.10;;;6.90;99.90;;;;;;5012086;28;20295;-65
2022/03/19 00:15:16;;;;;;;9.27;4.63;;;6.90;99.90;;;;;;5017922;28;20345;-66
2022/03/19 00:17:42;;;;;;;10.90;4.63;;;6.70;99.90;;;;;;5014622;28;20337;-65
2022/03/19 00:20:08;;;;;;;13.33;4.07;;;6.50;99.90;;;;;;5010114;28;20310;-65
2022/03/19 00:22:34;;;;;;;8.90;4.07;;;6.60;99.90;;;;;;5012503;28;20264;-66
2022/03/19 00:25:00;;;;;;;10.20;4.17;;;6.60;99.90;;;;;;5019839;28;20219;-65
2022/03/19 00:27:25;;;;;;;10.90;5.20;;;6.50;99.90;;;;;;5007403;28;20199;-65
2022/03/19 00:29:51;;;;;;;7.37;3.70;;;6.40;99.90;;;;;;5020294;28;20199;-64
2022/03/19 00:32:17;;;;;;;8.83;4.80;;;6.40;99.90;;;;;;5012116;28;20191;-67
2022/03/19 00:34:43;;;;;;;11.80;4.20;;;6.50;99.90;;;;;;5014499;28;20208;-68
2022/03/19 00:37:08;;;;;;;8.17;3.37;;;6.50;99.90;;;;;;5008287;28;20196;-64
2022/03/19 00:39:34;;;;;;;18.50;5.10;;;6.50;99.90;;;;;;5007876;28;20211;-65
2022/03/19 00:41:59;;;;;;;15.73;4.77;;;6.50;99.90;;;;;;5020096;28;20200;-64
2022/03/19 00:44:25;;;;;;;6.47;3.97;;;6.40;99.90;;;;;;5012155;28;20565;-64
2022/03/19 00:46:51;;;;;;;15.60;5.10;;;6.50;99.90;;;;;;5013470;28;20192;-64
2022/03/19 00:49:16;;;;;;;6.97;3.63;;;6.40;99.90;;;;;;5020301;28;20195;-65
2022/03/19 00:51:42;;;;;;;12.00;3.90;;;6.40;99.90;;;;;;5006421;28;20195;-66
2022/03/19 00:54:09;;;;;;;14.50;5.43;;;6.30;99.90;;;;;;5020204;28;20624;-71
2022/03/19 00:56:35;;;;;;;8.20;3.93;;;6.30;99.90;;;;;;5020896;28;20184;-71
2022/03/19 00:59:01;;;;;;;11.07;4.27;;;6.20;99.90;;;;;;5016300;28;20700;-69
2022/03/19 01:01:27;;;;;;;8.87;3.83;;;6.30;99.90;;;;;;5020495;28;20551;-74
2022/03/19 01:03:52;;;;;;;5.90;3.40;;;6.40;99.90;;;;;;5021372;28;20231;-69
2022/03/19 01:06:18;;;;;;;11.50;3.60;;;6.40;99.90;;;;;;5018941;28;20183;-76
2022/03/19 01:08:43;;;;;;;10.97;4.00;;;6.40;99.90;;;;;;5018828;28;20866;-75
2022/03/19 01:11:09;;;;;;;13.00;3.40;;;6.40;99.90;;;;;;5018753;28;20599;-71
2022/03/19 01:13:34;;;;;;;5.87;2.80;;;6.40;99.90;;;;;;5018756;28;20204;-76
2022/03/19 01:16:01;;;;;;;10.03;3.70;;;6.50;99.90;;;;;;5021318;28;20195;-70
2022/03/19 01:18:26;;;;;;;7.73;3.80;;;6.50;99.90;;;;;;5016609;28;20212;-71
2022/03/19 01:20:52;;;;;;;10.83;3.50;;;6.40;99.90;;;;;;5019387;28;20195;-74
2022/03/19 01:23:17;;;;;;;9.63;3.47;;;6.40;99.90;;;;;;5019206;28;20342;-75
2022/03/19 01:25:43;;;;;;;7.70;4.13;;;6.40;99.90;;;;;;5016249;28;20579;-70
2022/03/19 01:28:08;;;;;;;15.20;4.27;;;6.40;99.90;;;;;;5018146;28;20206;-70
2022/03/19 01:30:34;;;;;;;9.53;3.87;;;6.30;99.90;;;;;;5018930;28;20169;-67
2022/03/19 01:32:59;;;;;;;9.97;4.70;;;6.30;99.90;;;;;;5020144;28;20319;-69
2022/03/19 01:35:25;;;;;;;13.13;3.90;;;6.30;99.90;;;;;;5019822;28;20521;-67
2022/03/19 01:37:50;;;;;;;11.03;3.40;;;6.20;99.90;;;;;;5016379;28;20212;-69
2022/03/19 01:40:18;;;;;;;8.87;4.37;;;6.20;99.90;;;;;;5020723;28;20180;-68
2022/03/19 01:42:47;;;;;;;10.40;3.40;;;6.30;99.90;;;;;;5018781;28;20195;-66
2022/03/19 01:45:15;;;;;;;10.27;4.10;;;6.40;99.90;;;;;;5015741;28;20693;-66
2022/03/19 01:47:40;;;;;;;8.67;4.00;;;6.40;99.90;;;;;;5021507;28;20191;-66
2022/03/19 01:50:07;;;;;;;9.73;4.40;;;6.30;99.90;;;;;;5018469;28;20180;-68
2022/03/19 01:52:33;;;;;;;14.07;4.97;;;6.20;99.90;;;;;;5019606;28;20288;-67
2022/03/19 01:54:59;;;;;;;10.40;3.47;;;6.30;99.90;;;;;;5009024;28;20188;-67
2022/03/19 01:57:29;;;;;;;12.80;3.90;;;6.30;99.90;;;;;;5021003;28;20789;-67
2022/03/19 01:59:57;;;;;;;11.97;5.10;;;6.40;99.90;;;;;;5021256;28;20192;-67
2022/03/19 02:02:25;;;;;;;6.93;4.27;;;6.50;99.90;;;;;;5025052;28;20210;-67
2022/03/19 02:04:51;;;;;;;7.17;4.30;;;6.40;99.90;;;;;;5014772;28;20227;-67
2022/03/19 02:07:17;;;;;;;12.03;4.10;;;6.30;99.90;;;;;;5020419;28;20192;-68
2022/03/19 02:09:42;;;;;;;12.77;7.13;;;6.30;99.90;;;;;;5028938;28;20177;-66
2022/03/19 02:12:08;;;;;;;16.03;4.53;;;6.40;99.90;;;;;;5028847;28;20190;-67
2022/03/19 02:14:39;;;;;;;10.73;3.93;;;6.40;99.90;;;;;;5028431;28;20172;-67
2022/03/19 02:17:06;;;;;;;8.20;4.00;;;6.50;99.90;;;;;;5028936;28;20195;-68
2022/03/19 02:19:32;;;;;;;15.33;3.87;;;6.50;99.90;;;;;;5028389;28;20765;-68
2022/03/19 02:21:58;;;;;;;9.73;4.07;;;6.50;99.90;;;;;;5028373;28;20176;-68
2022/03/19 02:27:07;;;;;;;7.43;3.67;;;6.50;99.90;;;;;;5028239;28;20230;-68
2022/03/19 02:29:33;;;;;;;13.97;4.87;;;6.50;99.90;;;;;;5020326;28;20196;-68
2022/03/19 02:32:01;;;;;;;17.50;4.57;;;6.50;99.90;;;;;;5008741;28;20176;-68
2022/03/19 02:34:27;;;;;;;11.53;3.93;;;6.50;99.90;;;;;;5011024;28;20207;-68
2022/03/19 02:36:53;;;;;;;7.53;3.97;;;6.50;99.90;;;;;;5027798;28;20720;-68
2022/03/19 02:39:30;;;;;;;10.77;4.63;;;6.60;99.90;;;;;;5022166;28;20251;-68
2022/03/19 02:42:01;;;;;;;11.60;5.23;;;6.40;99.90;;;;;;5008153;28;20180;-68
2022/03/19 02:44:27;;;;;;;12.40;4.97;;;6.20;99.90;;;;;;5011382;28;20219;-68
2022/03/19 02:46:55;;;;;;;10.20;4.80;;;5.90;99.90;;;;;;5027790;28;20647;-68
2022/03/19 02:49:21;;;;;;;12.50;5.93;;;5.90;99.90;;;;;;5021302;28;20203;-67
2022/03/19 02:51:49;;;;;;;10.87;5.63;;;5.70;99.90;;;;;;5007777;28;20208;-68
2022/03/19 02:54:19;;;;;;;18.87;5.73;;;5.70;99.90;;;;;;5009626;28;20887;-68
2022/03/19 02:56:45;;;;;;;11.73;4.43;;;5.80;99.90;;;;;;5027753;28;20642;-68
2022/03/19 02:59:20;;;;;;;13.37;5.00;;;6.00;99.90;;;;;;5022508;28;20472;-67
2022/03/19 03:01:47;;;;;;;19.47;4.93;;;6.00;99.90;;;;;;5007611;28;20191;-67
2022/03/19 03:04:13;;;;;;;12.70;6.13;;;6.00;99.90;;;;;;5008846;28;20204;-67
2022/03/19 03:06:40;;;;;;;9.93;5.70;;;6.00;99.90;;;;;;5027621;28;20188;-67
2022/03/19 03:09:08;;;;;;;17.77;7.20;;;5.90;99.90;;;;;;5022733;28;20277;-67
2022/03/19 03:11:33;;;;;;;14.60;5.33;;;5.90;99.90;;;;;;5007454;28;20548;-67
2022/03/19 03:13:59;;;;;;;12.47;5.13;;;5.90;99.90;;;;;;5007125;28;20260;-67
2022/03/19 03:16:26;;;;;;;15.63;5.03;;;5.80;99.90;;;;;;5027143;28;20789;-67
2022/03/19 03:18:57;;;;;;;11.03;4.97;;;5.70;99.90;;;;;;5024379;28;20275;-68
2022/03/19 03:21:23;;;;;;;14.30;4.23;;;5.60;99.90;;;;;;5007481;28;20208;-69
2022/03/19 03:23:49;;;;;;;12.40;5.03;;;5.60;99.90;;;;;;5005392;28;20184;-69
2022/03/19 03:26:15;;;;;;;13.07;5.23;;;5.60;99.90;;;;;;5027044;28;20227;-69
2022/03/19 03:28:40;;;;;;;14.43;5.77;;;5.40;99.90;;;;;;5026857;28;20598;-69
2022/03/19 03:31:06;;;;;;;14.30;5.67;;;5.20;99.90;;;;;;5006831;28;20208;-69
2022/03/19 03:33:32;;;;;;;8.37;4.53;;;5.10;99.90;;;;;;5019445;28;20227;-69
2022/03/19 03:35:57;;;;;;;12.67;5.47;;;5.20;99.90;;;;;;5019239;28;20195;-69
2022/03/19 03:38:23;;;;;;;14.63;5.90;;;5.20;99.90;;;;;;5016895;28;20798;-68
2022/03/19 03:40:48;;;;;;;6.90;5.47;;;5.10;99.90;;;;;;5015203;28;20199;-69
2022/03/19 03:43:14;;;;;;;10.30;5.63;;;5.00;99.90;;;;;;5008433;28;20671;-69
2022/03/19 03:45:39;;;;;;;9.60;4.70;;;5.00;99.90;;;;;;5011665;28;20247;-70
2022/03/19 03:48:05;;;;;;;19.80;5.10;;;5.00;99.90;;;;;;5016681;28;20372;-70
2022/03/19 03:50:31;;;;;;;11.50;4.80;;;5.10;99.90;;;;;;5005736;28;20273;-70
2022/03/19 03:52:57;;;;;;;11.37;4.80;;;5.00;99.90;;;;;;5005773;28;20196;-70
2022/03/19 03:55:22;;;;;;;16.00;5.47;;;5.00;99.90;;;;;;5011619;28;20277;-70
2022/03/19 03:57:48;;;;;;;13.90;5.17;;;5.00;99.90;;;;;;5005332;28;20216;-70
2022/03/19 04:00:14;;;;;;;14.73;5.20;;;5.00;99.90;;;;;;5010397;28;20191;-70
2022/03/19 04:02:40;;;;;;;12.03;4.53;;;5.00;99.90;;;;;;5005085;28;20655;-70
2022/03/19 04:05:07;;;;;;;8.57;4.30;;;4.90;99.90;;;;;;5006381;28;20208;-69
2022/03/19 04:07:33;;;;;;;14.27;5.90;;;4.90;99.90;;;;;;5013799;28;20204;-70
2022/03/19 04:09:58;;;;;;;12.43;5.23;;;4.70;99.90;;;;;;5011942;28;20721;-70
2022/03/19 04:12:24;;;;;;;10.07;4.63;;;4.70;99.90;;;;;;5017987;28;20183;-69
2022/03/19 04:14:51;;;;;;;14.73;5.43;;;4.80;99.90;;;;;;5009668;28;20195;-69
2022/03/19 04:17:18;;;;;;;11.73;5.23;;;4.80;99.90;;;;;;5012313;28;20226;-69
2022/03/19 04:19:44;;;;;;;11.47;5.10;;;4.80;99.90;;;;;;5014607;28;20184;-69
2022/03/19 04:22:10;;;;;;;10.87;5.47;;;4.80;99.90;;;;;;5007939;28;20206;-67
2022/03/19 04:24:36;;;;;;;14.17;4.90;;;4.50;99.90;;;;;;4993581;28;20219;-67
2022/03/19 04:27:02;;;;;;;17.47;4.67;;;4.50;99.90;;;;;;5018078;28;20230;-66
2022/03/19 04:29:28;;;;;;;10.83;4.83;;;4.50;99.90;;;;;;5015501;28;20183;-66
2022/03/19 04:31:53;;;;;;;14.17;5.30;;;4.40;99.90;;;;;;5017076;28;20683;-66
2022/03/19 04:34:19;;;;;;;6.03;4.63;;;4.50;99.90;;;;;;5017467;28;20192;-66
2022/03/19 04:36:45;;;;;;;8.70;5.40;;;4.60;99.90;;;;;;5016142;28;20678;-66
2022/03/19 04:39:10;;;;;;;13.87;5.30;;;4.60;99.90;;;;;;5014965;28;20544;-67
2022/03/19 04:41:37;;;;;;;10.10;5.33;;;4.60;99.90;;;;;;5018104;28;20202;-69
2022/03/19 04:44:04;;;;;;;16.77;6.77;;;4.70;99.90;;;;;;5016858;28;20208;-66
2022/03/19 04:46:29;;;;;;;11.47;5.70;;;4.60;99.90;;;;;;5015589;28;20615;-64
2022/03/19 04:48:55;;;;;;;13.83;6.20;;;4.70;99.90;;;;;;5004994;28;20196;-65
2022/03/19 04:51:26;;;;;;;9.63;5.13;;;4.70;99.90;;;;;;5018455;28;20531;-65
2022/03/19 04:53:51;;;;;;;12.20;5.37;;;4.70;99.90;;;;;;5004366;28;20196;-64
2022/03/19 04:56:18;;;;;;;8.97;5.97;;;4.70;99.90;;;;;;5016833;28;20241;-64
2022/03/19 04:58:44;;;;;;;14.70;5.40;;;4.70;99.90;;;;;;5019799;28;20235;-65
2022/03/19 05:01:10;;;;;;;11.40;7.13;;;4.60;99.90;;;;;;4994908;28;20238;-66
2022/03/19 05:03:35;;;;;;;14.70;5.67;;;4.60;99.90;;;;;;5006874;28;20254;-64
2022/03/19 05:06:01;;;;;;;10.77;5.77;;;4.60;99.90;;;;;;5015717;28;20218;-64
2022/03/19 05:08:26;;;;;;;13.53;5.17;;;4.50;99.90;;;;;;5009540;28;20226;-64
2022/03/19 05:13:36;;;;;;;11.03;5.30;;;4.60;99.90;;;;;;5015313;28;20273;-64
2022/03/19 05:16:01;;;;;;;9.43;5.83;;;4.50;99.90;;;;;;5020214;28;20658;-64
2022/03/19 05:18:27;;;;;;;14.10;5.87;;;4.50;99.90;;;;;;5009399;28;20298;-64
2022/03/19 05:20:53;;;;;;;12.67;6.37;;;4.50;99.90;;;;;;5012096;28;20203;-64
2022/03/19 05:23:18;;;;;;;11.03;5.83;;;4.40;99.90;;;;;;5004337;28;20584;-66
2022/03/19 05:25:44;;;;;;;12.97;4.87;;;4.40;99.90;;;;;;5020455;28;20239;-66
2022/03/19 05:28:09;;;;;;;15.93;6.13;;;4.40;99.90;;;;;;5007358;28;20206;-64
2022/03/19 05:30:37;;;;;;;12.90;5.37;;;4.40;99.90;;;;;;5021866;28;20278;-65
2022/03/19 05:33:02;;;;;;;12.47;5.23;;;4.40;99.90;;;;;;5004009;28;20204;-65
2022/03/19 05:35:30;;;;;;;10.53;4.80;;;4.40;99.90;;;;;;5007518;28;20216;-65
2022/03/19 05:37:55;;;;;;;11.63;5.77;;;4.40;99.90;;;;;;5006309;28;20212;-65
2022/03/19 05:40:21;;;;;;;12.47;4.77;;;4.40;99.90;;;;;;5011678;28;20231;-65
2022/03/19 05:42:46;;;;;;;9.00;5.23;;;4.30;99.90;;;;;;5026265;28;20676;-65
2022/03/19 05:45:15;;;;;;;12.30;5.33;;;4.30;99.90;;;;;;5025103;28;20218;-65
2022/03/19 05:47:41;;;;;;;12.03;4.57;;;4.30;99.90;;;;;;5018921;28;20566;-65
2022/03/19 05:50:08;;;;;;;11.83;4.73;;;4.30;99.90;;;;;;5019691;28;20188;-65
2022/03/19 05:52:34;;;;;;;8.30;5.93;;;4.20;99.90;;;;;;5019227;28;20242;-65
2022/03/19 05:54:59;;;;;;;10.70;5.30;;;4.30;99.90;;;;;;5014736;28;20192;-64
2022/03/19 05:57:25;;;;;;;13.00;5.30;;;4.30;99.90;;;;;;5016441;28;20187;-64
2022/03/19 05:59:50;;;;;;;10.40;4.77;;;4.30;99.90;;;;;;5016214;28;20237;-65
2022/03/19 06:02:16;;;;;;;10.43;5.00;;;4.30;99.90;;;;;;5018483;28;20200;-65
2022/03/19 06:04:41;;;;;;;10.03;4.53;;;4.20;99.90;;;;;;5009302;28;20196;-65
2022/03/19 06:07:07;;;;;;;10.17;5.10;;;4.20;99.90;;;;;;5021929;28;20283;-65
2022/03/19 06:09:32;;;;;;;9.07;4.77;;;4.10;99.90;;;;;;5020928;28;20279;-65
2022/03/19 06:11:58;;;;;;;9.47;4.53;;;4.10;99.90;;;;;;5006827;28;20212;-63
2022/03/19 06:14:23;;;;;;;9.57;4.13;;;4.20;99.90;;;;;;5014002;28;20215;-63
2022/03/19 06:16:49;;;;;;;19.67;5.33;;;4.20;99.90;;;;;;5007466;28;20663;-63
2022/03/19 06:19:15;;;;;;;9.07;4.33;;;4.00;99.90;;;;;;5012143;28;20199;-63
2022/03/19 06:21:42;;;;;;;13.20;4.43;;;4.00;99.90;;;;;;5013910;28;20199;-64
2022/03/19 06:24:09;;;;;;;8.03;4.90;;;4.00;99.90;;;;;;5016993;28;20208;-64
2022/03/19 06:26:35;;;;;;;15.50;5.17;;;3.90;99.90;;;;;;5013200;28;20278;-65
2022/03/19 06:29:01;;;;;;;9.70;4.60;;;4.00;99.90;;;;;;5019953;28;20203;-64
2022/03/19 06:31:26;;;;;;;10.47;3.80;;;4.00;99.90;;;;;;5017658;28;20206;-66
2022/03/19 06:33:52;;;;;;;14.03;3.93;;;4.10;99.90;;;;;;5007491;28;20235;-67
2022/03/19 06:39:03;;;;;;;8.83;4.70;;;4.00;99.90;;;;;;5018783;28;20213;-63
2022/03/19 06:41:28;;;;;;;16.17;4.23;;;4.10;99.90;;;;;;5009168;28;20200;-63
2022/03/19 06:43:54;;;;;;;6.17;3.70;;;4.10;99.90;;;;;;5016552;28;20692;-64
2022/03/19 06:46:20;;;;;;;9.93;4.00;;;4.20;99.90;;;;;;5023780;28;20826;-64
2022/03/19 06:48:47;;;;;;;8.23;4.93;;;4.30;99.90;;;;;;5023094;28;20195;-64
2022/03/19 06:51:13;;;;;;;11.83;5.17;;;4.40;99.90;;;;;;5018533;28;20562;-64
2022/03/19 06:53:38;;;;;;;10.00;3.87;;;4.50;99.90;;;;;;5013070;28;20196;-64
2022/03/19 06:56:05;;;;;;;8.50;3.90;;;4.50;99.90;;;;;;5022911;28;20199;-64
2022/03/19 06:58:32;;;;;;;9.97;3.13;;;4.50;99.90;;;;;;5017200;28;20293;-64
2022/03/19 07:00:57;;;;;;;10.73;3.60;;;4.50;99.90;;;;;;5021257;28;20199;-64
2022/03/19 07:03:23;;;;;;;8.43;3.60;;;4.60;99.90;;;;;;5009699;28;20219;-64
2022/03/19 07:05:49;;;;;;;10.17;2.73;;;4.70;99.90;;;;;;5019297;28;20706;-64
2022/03/19 07:08:15;;;;;;;10.23;3.73;;;4.80;99.90;;;;;;5009256;28;20215;-65
2022/03/19 07:10:40;;;;;;;5.93;2.40;;;4.90;99.90;;;;;;5013099;28;20183;-65
2022/03/19 07:13:06;;;;;;;10.90;2.73;;;5.00;99.90;;;;;;5009469;28;20203;-65
2022/03/19 07:15:32;;;;;;;3.93;2.13;;;5.00;99.90;;;;;;5023867;28;20314;-65
2022/03/19 07:18:00;;;;;;;8.80;2.80;;;5.00;99.90;;;;;;5007183;28;20208;-66
2022/03/19 07:20:26;;;;;;;6.93;2.63;;;5.10;99.90;;;;;;5007689;28;20196;-66
2022/03/19 07:22:59;;;;;;;10.43;3.70;;;5.20;99.90;;;;;;5011986;28;20211;-65
2022/03/19 07:25:28;;;;;;;8.73;3.13;;;5.20;99.90;;;;;;5022350;28;20303;-65
2022/03/19 07:27:55;;;;;;;6.00;2.83;;;5.30;99.90;;;;;;5011971;28;20232;-64
2022/03/19 07:30:22;;;;;;;7.53;3.07;;;5.40;99.90;;;;;;5010124;28;20641;-65
2022/03/19 07:32:48;;;;;;;10.17;2.67;;;5.50;99.90;;;;;;5005785;28;20198;-65
2022/03/19 07:35:14;;;;;;;9.50;2.93;;;5.50;99.90;;;;;;5012700;28;20208;-64
2022/03/19 07:37:41;;;;;;;3.73;2.40;;;5.50;99.90;;;;;;5009183;28;20671;-64
2022/03/19 07:40:15;;;;;;;8.67;2.83;;;5.50;99.90;;;;;;5010684;28;20200;-64
2022/03/19 07:42:41;;;;;;;10.80;2.53;;;5.70;99.90;;;;;;5016105;28;20207;-64
2022/03/19 07:45:08;;;;;;;10.53;2.67;;;5.80;99.90;;;;;;5021930;28;20208;-65
2022/03/19 07:47:34;;;;;;;9.20;2.73;;;5.90;99.90;;;;;;5016827;28;20267;-65
2022/03/19 07:50:00;;;;;;;2.77;2.07;;;5.90;99.90;;;;;;5019276;28;20218;-64
2022/03/19 07:52:27;;;;;;;11.87;2.87;;;5.80;99.90;;;;;;5018282;28;20206;-64
2022/03/19 07:54:54;;;;;;;10.10;2.53;;;5.90;99.90;;;;;;5023604;28;20191;-64
2022/03/19 07:57:21;;;;;;;4.77;2.53;;;5.90;99.90;;;;;;5005182;28;20236;-64
2022/03/19 07:59:47;;;;;;;3.67;2.43;;;6.00;99.90;;;;;;5022937;28;20172;-64
2022/03/19 08:02:13;;;;;;;6.37;2.00;;;6.10;99.90;;;;;;5016444;28;20270;-64
2022/03/19 08:04:38;;;;;;;8.47;2.20;;;6.10;99.90;;;;;;5006914;28;20678;-65
2022/03/19 08:07:04;;;;;;;7.57;2.80;;;6.10;99.90;;;;;;5015112;28;20980;-64
2022/03/19 08:09:29;;;;;;;8.67;2.83;;;6.10;99.90;;;;;;5014763;28;20196;-65
2022/03/19 08:11:56;;;;;;;5.23;2.90;;;6.20;99.90;;;;;;5016597;28;20222;-64
2022/03/19 08:14:21;;;;;;;8.97;2.33;;;6.10;99.90;;;;;;5019243;28;20190;-65
2022/03/19 08:16:48;;;;;;;6.50;2.60;;;6.30;99.90;;;;;;5013335;28;20191;-65
2022/03/19 08:19:14;;;;;;;3.03;2.03;;;6.40;99.90;;;;;;5018357;28;20184;-64
2022/03/19 08:21:43;;;;;;;7.90;2.17;;;6.50;99.90;;;;;;5021984;28;20203;-65
2022/03/19 08:24:08;;;;;;;6.50;2.20;;;6.40;99.90;;;;;;5017540;28;20187;-64
2022/03/19 08:26:34;;;;;;;8.83;2.67;;;6.60;99.90;;;;;;5021232;28;20555;-64
2022/03/19 08:29:02;;;;;;;12.63;2.90;;;6.70;99.90;;;;;;5014963;28;20207;-64
2022/03/19 08:31:28;;;;;;;8.43;3.33;;;6.90;99.90;;;;;;5023950;28;20199;-65
2022/03/19 08:33:54;;;;;;;7.43;2.27;;;6.90;99.90;;;;;;5009435;28;20215;-64
2022/03/19 08:36:19;;;;;;;3.53;2.43;;;7.00;99.90;;;;;;5014703;28;20222;-64
2022/03/19 08:41:29;;;;;;;6.73;3.63;;;7.10;99.90;;;;;;5011544;28;20224;-64
2022/03/19 08:43:54;;;;;;;3.43;2.00;;;7.10;99.90;;;;;;5013767;28;20235;-64
2022/03/19 08:46:20;;;;;;;4.03;2.10;;;7.20;99.90;;;;;;5012124;28;20290;-65
2022/03/19 08:48:45;;;;;;;5.50;2.13;;;7.40;99.90;;;;;;5010077;28;20219;-65
2022/03/19 08:53:59;;;;;;;6.33;3.40;;;7.40;99.90;;;;;;5009722;28;20600;-64
2022/03/19 08:56:25;;;;;;;6.90;2.40;;;7.50;99.90;;;;;;5020194;28;20269;-64
2022/03/19 08:58:53;;;;;;;6.10;3.03;;;7.50;99.90;;;;;;5013638;28;20730;-66
2022/03/19 09:01:19;;;;;;;8.60;3.33;;;7.60;99.90;;;;;;5012679;28;20193;-67
2022/03/19 09:03:44;;;;;;;6.27;2.77;;;7.60;99.90;;;;;;5017376;28;20337;-66
2022/03/19 09:06:14;;;;;;;5.43;2.37;;;7.60;99.90;;;;;;5015805;28;20594;-67
2022/03/19 09:08:46;;;;;;;3.03;1.67;;;7.70;99.90;;;;;;5015837;28;20195;-68
2022/03/19 09:11:12;;;;;;;8.23;2.50;;;7.80;99.90;;;;;;5022331;28;20556;-67
2022/03/19 09:13:39;;;;;;;3.67;2.00;;;7.90;99.90;;;;;;5012101;28;20195;-66
2022/03/19 09:16:05;;;;;;;6.93;2.37;;;7.90;99.90;;;;;;5025514;28;20192;-65
2022/03/19 09:18:31;;;;;;;11.10;3.50;;;8.10;99.90;;;;;;5015213;28;20305;-66
2022/03/19 09:20:57;;;;;;;5.57;2.63;;;8.20;99.90;;;;;;5015166;28;20318;-66
2022/03/19 09:23:23;;;;;;;5.83;2.13;;;8.20;99.90;;;;;;5008456;28;20227;-65
2022/03/19 09:25:49;;;;;;;4.17;1.80;;;8.30;99.90;;;;;;5009416;28;20582;-64
2022/03/19 09:28:15;;;;;;;8.20;2.20;;;8.50;99.90;;;;;;5018070;28;20192;-66
2022/03/19 09:30:43;;;;;;;4.93;2.27;;;8.60;99.90;;;;;;5010226;28;20284;-65
2022/03/19 09:33:09;;;;;;;4.93;2.30;;;8.70;99.90;;;;;;5011866;28;20192;-68
2022/03/19 09:35:35;;;;;;;7.67;2.63;;;8.70;99.90;;;;;;5010345;28;20184;-66
2022/03/19 09:38:01;;;;;;;3.40;1.67;;;8.80;99.90;;;;;;5025395;28;20709;-68
2022/03/19 09:40:26;;;;;;;5.27;2.53;;;8.80;99.90;;;;;;5021818;28;20733;-66
2022/03/19 09:42:54;;;;;;;5.03;2.33;;;8.90;99.90;;;;;;5025965;28;20608;-67
2022/03/19 09:45:21;;;;;;;4.33;1.97;;;9.00;99.90;;;;;;5013682;28;20218;-67
2022/03/19 09:47:48;;;;;;;2.93;1.87;;;9.10;99.90;;;;;;5020726;28;20202;-78
2022/03/19 09:50:14;;;;;;;6.50;2.43;;;9.10;99.90;;;;;;5021114;28;20188;-70
2022/03/19 09:52:41;;;;;;;5.10;1.57;;;9.20;99.90;;;;;;5019225;28;20211;-67
2022/03/19 09:55:08;;;;;;;8.03;1.80;;;9.30;99.90;;;;;;5019562;28;20673;-68
2022/03/19 09:57:34;;;;;;;4.50;1.50;;;9.40;99.90;;;;;;5019372;28;20232;-68
2022/03/19 10:00:00;;;;;;;6.77;2.00;;;9.60;99.60;;;;;;5023471;28;20222;-67
2022/03/19 10:02:26;;;;;;;12.83;2.93;;;9.70;98.80;;;;;;5018355;28;20206;-67
2022/03/19 10:04:52;;;;;;;3.67;1.93;;;9.60;98.70;;;;;;5021125;28;20208;-68
2022/03/19 10:10:11;;;;;;;5.30;1.73;;;9.70;97.90;;;;;;5028708;28;20184;-67
2022/03/19 10:12:37;;;;;;;8.47;2.23;;;9.70;98.40;;;;;;5007391;28;20262;-67
2022/03/19 10:15:09;;;;;;;6.67;2.07;;;9.90;97.80;;;;;;5027045;28;20193;-67
2022/03/19 10:17:37;;;;;;;9.67;1.70;;;10.00;97.60;;;;;;5020589;28;20201;-67
2022/03/19 10:20:10;;;;;;;7.63;2.00;;;10.20;96.90;;;;;;5011756;28;20197;-67
2022/03/19 10:22:44;;;;;;;6.70;2.50;;;10.30;96.70;;;;;;5006622;28;20209;-67
2022/03/19 10:25:13;;;;;;;3.87;2.23;;;10.20;96.90;;;;;;5021299;28;20240;-67
2022/03/19 10:27:41;;;;;;;2.17;1.70;;;10.30;96.20;;;;;;5015334;28;20205;-67
2022/03/19 10:30:24;;;;;;;8.57;2.40;;;10.40;96.20;;;;;;5020473;28;20239;-76
2022/03/19 10:32:54;;;;;;;2.50;1.73;;;10.20;95.90;;;;;;5014809;28;20206;-71
2022/03/19 10:35:32;;;;;;;6.70;2.27;;;10.20;96.60;;;;;;5018611;28;20234;-70
2022/03/19 10:37:59;;;;;;;2.97;1.97;;;10.30;96.50;;;;;;5018973;28;20293;-68
2022/03/19 10:40:43;;;;;;;2.67;1.53;;;10.40;96.20;;;;;;5019734;28;20197;-69
2022/03/19 10:43:10;;;;;;;5.23;2.03;;;10.60;95.60;;;;;;5016986;28;20665;-69
2022/03/19 10:45:44;;;;;;;4.67;2.40;;;10.30;95.50;;;;;;5019477;28;20214;-68
2022/03/19 10:48:12;;;;;;;5.03;2.70;;;10.50;95.90;;;;;;5021035;28;20224;-68
2022/03/19 10:50:40;;;;;;;4.67;2.70;;;10.80;95.40;;;;;;5018916;28;20197;-69
2022/03/19 10:53:06;;;;;;;4.67;2.50;;;11.00;95.10;;;;;;5019317;28;20196;-69
2022/03/19 10:55:31;;;;;;;2.77;2.03;;;11.20;95.30;;;;;;5012766;28;20958;-68
2022/03/19 10:57:57;;;;;;;5.83;2.43;;;11.30;94.70;;;;;;5024491;28;20225;-70
2022/03/19 11:00:22;;;;;;;4.50;1.97;;;11.00;93.30;;;;;;5005764;28;20213;-68
2022/03/19 11:02:49;;;;;;;3.13;2.63;;;10.90;93.70;;;;;;5023734;28;20188;-68
2022/03/19 11:05:19;;;;;;;2.53;1.97;;;10.50;94.70;;;;;;5020154;28;20215;-66
2022/03/19 11:07:45;;;;;;;6.50;2.70;;;10.70;95.10;;;;;;5023465;28;20189;-66
2022/03/19 11:10:11;;;;;;;5.13;2.60;;;11.00;93.60;;;;;;5013081;28;20664;-72
2022/03/19 11:12:42;;;;;;;5.40;2.40;;;11.30;93.80;;;;;;5018735;28;20186;-76
2022/03/19 11:15:09;;;;;;;5.00;2.77;;;11.70;93.00;;;;;;5011852;28;20686;-66
2022/03/19 11:17:40;;;;;;;5.63;3.10;;;12.10;92.80;;;;;;5018677;28;20619;-67
2022/03/19 11:20:09;;;;;;;4.20;2.40;;;12.30;92.10;;;;;;5007537;28;20249;-66
2022/03/19 11:22:41;;;;;;;7.33;2.90;;;12.40;90.70;;;;;;5014280;28;20335;-65
2022/03/19 11:25:32;;;;;;;3.93;2.30;;;12.60;91.10;;;;;;5012204;28;20236;-66
2022/03/19 11:28:06;;;;;;;5.67;2.70;;;12.80;89.80;;;;;;5013789;28;20200;-66
2022/03/19 11:30:38;;;;;;;6.23;2.60;;;12.80;88.00;;;;;;5019623;28;20179;-66
2022/03/19 11:33:15;;;;;;;4.17;2.97;;;12.10;89.20;;;;;;5013356;28;20693;-66
2022/03/19 11:35:43;;;;;;;8.23;2.77;;;12.40;89.00;;;;;;5011484;28;20232;-66
2022/03/19 11:38:16;;;;;;;8.03;3.10;;;12.80;88.70;;;;;;5015973;28;20196;-66
2022/03/19 11:40:45;;;;;;;4.93;2.70;;;13.20;87.40;;;;;;5014727;28;20219;-66
2022/03/19 11:43:11;;;;;;;8.67;2.27;;;13.70;85.50;;;;;;5022005;28;20645;-66
2022/03/19 11:46:11;;;;;;;3.13;2.03;;;13.20;82.70;;;;;;5018023;28;20257;-66
2022/03/19 11:48:37;;;;;;;5.10;1.87;;;12.50;84.50;;;;;;5011380;28;20190;-66
2022/03/19 11:51:24;;;;;;;11.20;2.87;;;12.60;84.70;;;;;;5014303;28;20247;-65
2022/03/19 11:54:09;;;;;;;4.00;2.70;;;12.00;85.70;;;;;;5002527;28;20197;-65
2022/03/19 11:56:41;;;;;;;5.60;2.63;;;12.00;86.90;;;;;;5011499;28;20214;-65
2022/03/19 11:59:15;;;;;;;8.27;3.17;;;12.10;87.30;;;;;;5017854;28;20238;-65
2022/03/19 12:01:48;;;;;;;7.90;3.07;;;12.20;86.50;;;;;;5024282;28;20232;-65
2022/03/19 12:04:15;;;;;;;5.00;2.60;;;12.50;85.80;;;;;;5009891;28;20207;-65
2022/03/19 12:06:58;;;;;;;4.13;2.70;;;12.90;85.10;;;;;;5015669;28;20220;-66
2022/03/19 12:09:52;;;;;;;7.03;4.40;;;13.20;86.30;;;;;;5018890;28;20254;-65
2022/03/19 12:12:18;;;;;;;7.47;3.77;;;13.10;83.70;;;;;;5011574;28;20212;-66
2022/03/19 12:14:44;;;;;;;10.40;4.23;;;13.00;84.00;;;;;;5009693;28;20273;-66
2022/03/19 12:17:20;;;;;;;5.77;3.90;;;13.30;84.30;;;;;;5004316;28;20465;-66
2022/03/19 12:19:54;;;;;;;7.13;4.53;;;13.70;83.60;;;;;;5009154;28;20282;-67
2022/03/19 12:22:32;;;;;;;7.63;4.73;;;13.70;83.40;;;;;;5006504;28;20227;-67
2022/03/19 12:25:25;;;;;;;12.80;4.07;;;13.60;84.00;;;;;;5017186;28;20218;-66
2022/03/19 12:27:55;;;;;;;9.47;4.67;;;13.50;82.50;;;;;;5018252;28;20682;-65
2022/03/19 12:30:22;;;;;;;7.77;4.13;;;12.80;84.50;;;;;;5014770;28;20978;-66
2022/03/19 12:32:56;;;;;;;9.13;4.27;;;13.00;86.70;;;;;;5010501;28;20196;-66
2022/03/19 12:35:32;;;;;;;8.47;4.73;;;14.00;84.70;;;;;;5020976;28;20279;-65
2022/03/19 12:37:58;;;;;;;10.27;4.80;;;14.60;83.50;;;;;;5024036;28;20217;-66
2022/03/19 12:41:23;;;;;;;7.80;4.80;;;14.90;81.30;;;;;;5022509;28;20688;-66
2022/03/19 12:43:13;;;;;;;9.90;5.73;;;14.80;80.30;;;;;;5012410;28;20295;-66
2022/03/19 12:45:41;;;;;;;8.53;5.77;;;14.90;80.80;;;;;;5008149;28;20645;-66
2022/03/19 12:48:16;;;;;;;6.87;4.67;;;13.90;79.40;;;;;;5017578;28;20190;-66
2022/03/19 12:50:52;;;;;;;8.40;5.07;;;12.70;83.30;;;;;;5022701;28;20207;-66
2022/03/19 12:53:31;;;;;;;8.73;4.93;;;11.80;84.80;;;;;;5022504;28;20572;-66
2022/03/19 12:56:14;;;;;;;9.40;5.30;;;11.70;86.80;;;;;;5021113;28;20202;-66
2022/03/19 12:58:44;;;;;;;8.90;6.97;;;11.40;87.80;;;;;;5013439;28;20272;-67
2022/03/19 13:01:12;;;;;;;10.10;7.63;;;11.10;87.80;;;;;;5007990;28;20211;-67
2022/03/19 13:03:37;;;;;;;12.30;8.70;;;11.30;87.30;;;;;;5018254;28;20229;-65
2022/03/19 13:06:03;;;;;;;13.67;9.17;;;11.30;85.70;;;;;;5014168;28;20209;-65
2022/03/19 13:08:28;;;;;;;15.13;8.13;;;11.80;86.80;;;;;;5018219;28;20188;-66